createdAt,value
2022-08-12T00:01:11.671Z,99693.41
2022-08-12T00:04:00.758Z,99694.05
2022-08-12T00:06:47.103Z,99692.21
2022-08-12T00:09:32.147Z,99691.67
2022-08-12T00:12:17.753Z,99691.61
2022-08-12T00:15:06.171Z,99689.59
2022-08-12T00:17:51.862Z,99690.55
2022-08-12T00:20:38.577Z,99688.49
2022-08-12T00:23:23.774Z,99688.89
2022-08-12T00:26:22.649Z,99694.23
2022-08-12T00:29:11.720Z,99691.50
2022-08-12T00:32:00.431Z,99702.35
2022-08-12T00:34:49.617Z,99708.02
2022-08-12T00:37:38.958Z,99705.34
2022-08-12T00:40:28.027Z,99706.20
2022-08-12T00:42:56.101Z,99698.27
2022-08-12T00:45:22.562Z,99694.73
2022-08-12T00:47:52.127Z,99695.54
2022-08-12T00:50:20.732Z,99694.73
2022-08-12T00:52:50.378Z,99697.30
2022-08-12T00:55:19.636Z,99694.25
2022-08-12T00:57:49.868Z,99691.20
2022-08-12T01:00:23.078Z,99684.98
2022-08-12T01:02:52.846Z,99680.59
2022-08-12T01:05:41.030Z,99681.09
2022-08-12T01:08:47.381Z,99678.91
2022-08-12T01:11:34.153Z,99675.02
2022-08-12T01:14:01.772Z,99673.27
2022-08-12T01:16:28.533Z,99670.41
2022-08-12T01:18:58.337Z,99665.61
2022-08-12T01:21:27.606Z,99658.60
2022-08-12T01:24:47.305Z,99659.23
2022-08-12T01:27:15.390Z,99662.65
2022-08-12T01:29:43.456Z,99662.02
2022-08-12T01:32:17.954Z,99661.95
2022-08-12T01:35:13.647Z,99665.23
2022-08-12T01:37:54.955Z,99664.60
2022-08-12T01:40:35.557Z,99661.48
2022-08-12T01:43:10.247Z,99664.45
2022-08-12T01:45:49.075Z,99663.06
2022-08-12T01:48:28.528Z,99662.63
2022-08-12T01:51:40.729Z,99658.86
2022-08-12T01:54:13.445Z,99656.16
2022-08-12T01:57:03.595Z,99656.92
2022-08-12T01:59:45.866Z,99653.92
2022-08-12T02:02:17.188Z,99652.39
2022-08-12T02:05:10.584Z,99653.19
2022-08-12T02:08:22.763Z,99655.26
2022-08-12T02:11:25.373Z,99660.84
2022-08-12T02:13:59.576Z,99665.30
2022-08-12T02:16:41.177Z,99669.12
2022-08-12T02:19:23.185Z,99668.14
2022-08-12T02:22:21.543Z,99667.98
2022-08-12T02:24:50.363Z,99672.81
2022-08-12T02:27:19.070Z,99674.56
2022-08-12T02:29:45.654Z,99672.30
2022-08-12T02:32:14.019Z,99664.55
2022-08-12T02:34:43.436Z,99667.25
2022-08-12T02:37:14.958Z,99667.83
2022-08-12T02:39:49.179Z,99665.67
2022-08-12T02:42:20.041Z,99670.37
2022-08-12T02:44:52.775Z,99669.71
2022-08-12T02:48:00.279Z,99671.93
2022-08-12T02:50:10.623Z,99670.97
2022-08-12T02:52:37.282Z,99669.39
2022-08-12T02:55:28.601Z,99668.89
2022-08-12T02:58:12.373Z,99671.55
2022-08-12T03:00:43.253Z,99673.69
2022-08-12T03:03:13.229Z,99672.45
2022-08-12T03:05:57.971Z,99671.98
2022-08-12T03:08:32.689Z,99671.40
2022-08-12T03:11:19.128Z,99668.98
2022-08-12T03:13:51.151Z,99667.36
2022-08-12T03:16:20.215Z,99671.71
2022-08-12T03:18:48.656Z,99670.65
2022-08-12T03:21:17.083Z,99670.34
2022-08-12T03:23:45.526Z,99670.15
2022-08-12T03:26:12.737Z,99668.10
2022-08-12T03:28:50.458Z,99667.64
2022-08-12T03:31:20.099Z,99666.34
2022-08-12T03:34:02.241Z,99661.12
2022-08-12T03:36:34.315Z,99662.66
2022-08-12T03:39:16.744Z,99660.86
2022-08-12T03:41:58.627Z,99658.79
2022-08-12T03:45:00.354Z,99664.95
2022-08-12T03:48:09.124Z,99662.89
2022-08-12T03:50:56.065Z,99659.84
2022-08-12T03:53:49.546Z,99649.16
2022-08-12T03:56:35.505Z,99651.52
2022-08-12T03:59:24.392Z,99660.69
2022-08-12T04:01:56.643Z,99656.45
2022-08-12T04:04:33.528Z,99658.38
2022-08-12T04:07:08.404Z,99659.10
2022-08-12T04:09:41.055Z,99659.92
2022-08-12T04:12:32.254Z,99663.04
2022-08-12T04:15:01.318Z,99664.98
2022-08-12T04:17:28.724Z,99658.61
2022-08-12T04:19:57.316Z,99660.15
2022-08-12T04:22:29.998Z,99662.89
2022-08-12T04:25:01.892Z,99667.50
2022-08-12T04:27:30.789Z,99673.47
2022-08-12T04:30:16.475Z,99679.34
2022-08-12T04:32:52.036Z,99683.80
2022-08-12T04:35:20.193Z,99682.59
2022-08-12T04:37:59.045Z,99682.77
2022-08-12T04:40:32.887Z,99684.27
2022-08-12T04:43:00.560Z,99686.48
2022-08-12T04:45:27.167Z,99681.91
2022-08-12T04:47:54.445Z,99680.52
2022-08-12T04:50:34.912Z,99678.60
2022-08-12T04:53:05.416Z,99680.31
2022-08-12T04:55:32.938Z,99679.80
2022-08-12T04:58:00.096Z,99678.33
2022-08-12T05:00:27.190Z,99674.21
2022-08-12T05:02:53.783Z,99676.38
2022-08-12T05:05:23.244Z,99678.75
2022-08-12T05:07:54.430Z,99676.02
2022-08-12T05:10:33.758Z,99676.86
2022-08-12T05:13:07.258Z,99681.69
2022-08-12T05:15:37.863Z,99688.36
2022-08-12T05:18:24.368Z,99692.36
2022-08-12T05:20:51.508Z,99685.84
2022-08-12T05:23:20.612Z,99683.23
2022-08-12T05:25:50.178Z,99672.90
2022-08-12T05:28:17.724Z,99671.20
2022-08-12T05:30:45.286Z,99669.55
2022-08-12T05:33:12.818Z,99668.34
2022-08-12T05:35:44.297Z,99663.89
2022-08-12T05:38:36.125Z,99665.54
2022-08-12T05:41:05.514Z,99667.35
2022-08-12T05:43:35.127Z,99668.08
2022-08-12T05:46:04.778Z,99667.73
2022-08-12T05:48:32.046Z,99671.74
2022-08-12T05:50:58.494Z,99675.80
2022-08-12T05:53:26.065Z,99669.08
2022-08-12T05:55:53.251Z,99668.71
2022-08-12T05:58:20.619Z,99672.40
2022-08-12T06:00:47.433Z,99673.98
2022-08-12T06:03:17.129Z,99669.23
2022-08-12T06:05:55.135Z,99663.34
2022-08-12T06:08:24.525Z,99668.82
2022-08-12T06:10:51.657Z,99669.40
2022-08-12T06:13:28.442Z,99672.27
2022-08-12T06:16:07.082Z,99665.55
2022-08-12T06:18:33.937Z,99658.94
2022-08-12T06:21:02.413Z,99660.00
2022-08-12T06:23:30.055Z,99659.30
2022-08-12T06:25:58.131Z,99662.67
2022-08-12T06:28:25.240Z,99659.52
2022-08-12T06:31:22.119Z,99661.82
2022-08-12T06:33:56.063Z,99669.41
2022-08-12T06:36:33.527Z,99669.59
2022-08-12T06:39:00.853Z,99674.27
2022-08-12T06:42:28.547Z,99673.28
2022-08-12T06:44:32.880Z,99672.38
2022-08-12T06:46:59.672Z,99672.17
2022-08-12T06:49:27.736Z,99671.09
2022-08-12T06:51:56.163Z,99676.20
2022-08-12T06:54:30.851Z,99675.48
2022-08-12T06:57:05.395Z,99676.09
2022-08-12T06:59:46.629Z,99678.36
2022-08-12T07:02:13.615Z,99676.13
2022-08-12T07:04:42.511Z,99678.34
2022-08-12T07:07:11.087Z,99676.13
2022-08-12T07:10:02.815Z,99674.50
2022-08-12T07:12:31.783Z,99679.20
2022-08-12T07:15:00.789Z,99676.71
2022-08-12T07:17:36.981Z,99671.08
2022-08-12T07:20:29.575Z,99671.51
2022-08-12T07:22:59.028Z,99679.82
2022-08-12T07:25:40.312Z,99687.76
2022-08-12T07:28:16.945Z,99685.72
2022-08-12T07:30:46.342Z,99685.71
2022-08-12T07:33:12.948Z,99674.06
2022-08-12T07:35:47.272Z,99674.13
2022-08-12T07:38:29.587Z,99672.91
2022-08-12T07:41:05.656Z,99672.18
2022-08-12T07:43:36.181Z,99670.95
2022-08-12T07:46:10.502Z,99669.15
2022-08-12T07:48:40.558Z,99664.34
2022-08-12T07:51:09.143Z,99663.34
2022-08-12T07:53:47.763Z,99662.35
2022-08-12T07:56:23.286Z,99660.95
2022-08-12T07:58:49.820Z,99667.02
2022-08-12T08:01:20.712Z,99673.45
2022-08-12T08:04:09.393Z,99671.15
2022-08-12T08:06:40.286Z,99667.98
2022-08-12T08:09:06.894Z,99673.09
2022-08-12T08:11:52.404Z,99673.61
2022-08-12T08:14:20.589Z,99675.09
2022-08-12T08:16:50.408Z,99675.27
2022-08-12T08:19:22.978Z,99671.55
2022-08-12T08:21:50.808Z,99668.04
2022-08-12T08:24:17.891Z,99669.96
2022-08-12T08:26:51.140Z,99664.95
2022-08-12T08:29:18.829Z,99660.46
2022-08-12T08:31:46.301Z,99659.45
2022-08-12T08:34:40.244Z,99657.34
2022-08-12T08:36:59.986Z,99655.56
2022-08-12T08:39:31.346Z,99655.92
2022-08-12T08:42:20.203Z,99648.96
2022-08-12T08:44:49.776Z,99652.20
2022-08-12T08:47:25.055Z,99650.61
2022-08-12T08:49:51.899Z,99646.89
2022-08-12T08:52:39.458Z,99651.33
2022-08-12T08:55:09.421Z,99646.02
2022-08-12T08:57:43.611Z,99645.75
2022-08-12T09:00:15.757Z,99644.00
2022-08-12T09:02:49.587Z,99646.19
2022-08-12T09:05:43.096Z,99644.42
2022-08-12T09:08:22.389Z,99642.62
2022-08-12T09:11:00.159Z,99647.13
2022-08-12T09:14:12.447Z,99639.54
2022-08-12T09:16:20.859Z,99633.95
2022-08-12T09:18:52.170Z,99632.14
2022-08-12T09:21:21.121Z,99631.71
2022-08-12T09:26:46.352Z,99627.90
2022-08-12T09:30:11.878Z,99632.27
2022-08-12T09:32:10.663Z,99635.05
2022-08-12T09:34:56.786Z,99641.94
2022-08-12T09:37:26.029Z,99635.52
2022-08-12T09:40:04.394Z,99633.51
2022-08-12T09:43:16.072Z,99639.64
2022-08-12T09:46:11.585Z,99640.27
2022-08-12T09:48:36.760Z,99633.32
2022-08-12T09:51:17.163Z,99627.58
2022-08-12T09:54:05.970Z,99626.59
2022-08-12T09:56:59.995Z,99623.79
2022-08-12T10:00:17.240Z,99624.63
2022-08-12T10:02:53.159Z,99623.78
2022-08-12T10:04:59.981Z,99622.03
2022-08-12T10:07:40.082Z,99622.84
2022-08-12T10:10:22.889Z,99616.71
2022-08-12T10:13:34.937Z,99606.41
2022-08-12T10:16:06.074Z,99596.23
2022-08-12T10:18:37.188Z,99591.38
2022-08-12T10:21:40.890Z,99586.48
2022-08-12T10:24:34.814Z,99586.92
2022-08-12T10:27:20.391Z,99589.02
2022-08-12T10:30:38.700Z,99583.56
2022-08-12T10:32:42.954Z,99580.98
2022-08-12T10:35:14.707Z,99575.41
2022-08-12T10:38:37.601Z,99576.39
2022-08-12T10:40:33.802Z,99569.56
2022-08-12T10:43:19.732Z,99575.22
2022-08-12T10:45:51.253Z,99569.80
2022-08-12T10:48:33.397Z,99565.99
2022-08-12T10:52:03.018Z,99566.35
2022-08-12T10:53:53.739Z,99562.77
2022-08-12T10:56:26.575Z,99561.25
2022-08-12T10:59:00.956Z,99565.52
2022-08-12T11:04:31.395Z,99568.64
2022-08-12T11:04:41.465Z,99566.32
2022-08-12T11:08:35.125Z,99569.05
2022-08-12T11:10:01.698Z,99567.56
2022-08-12T11:12:55.019Z,99567.00
2022-08-12T11:15:21.255Z,99560.86
2022-08-12T11:17:53.817Z,99559.90
2022-08-12T11:20:24.341Z,99559.00
2022-08-12T11:23:03.909Z,99556.57
2022-08-12T11:25:56.798Z,99556.48
2022-08-12T11:28:33.452Z,99548.72
2022-08-12T11:31:02.720Z,99542.73
2022-08-12T11:34:04.730Z,99536.94
2022-08-12T11:36:17.629Z,99538.69
2022-08-12T11:38:50.575Z,99536.27
2022-08-12T11:41:30.943Z,99532.98
2022-08-12T11:44:35.511Z,99536.71
2022-08-12T11:46:53.544Z,99531.00
2022-08-12T11:49:31.993Z,99528.30
2022-08-12T11:52:03.418Z,99526.89
2022-08-12T11:54:31.348Z,99525.38
2022-08-12T11:57:02.940Z,99525.27
2022-08-12T12:02:41.946Z,99513.30
2022-08-12T12:05:11.332Z,99513.33
2022-08-12T12:08:37.914Z,99514.34
2022-08-12T12:10:27.737Z,99507.12
2022-08-12T12:12:54.878Z,99507.55
2022-08-12T12:15:25.149Z,99505.52
2022-08-12T12:18:30.950Z,99507.77
2022-08-12T12:21:00.488Z,99504.70
2022-08-12T12:23:29.526Z,99503.06
2022-08-12T12:26:07.080Z,99505.20
2022-08-12T12:28:37.662Z,99501.90
2022-08-12T12:31:14.671Z,99494.55
2022-08-12T12:33:58.009Z,99487.02
2022-08-12T12:36:30.020Z,99482.97
2022-08-12T12:38:58.019Z,99491.80
2022-08-12T12:42:41.507Z,99491.74
2022-08-12T12:44:25.958Z,99483.91
2022-08-12T12:47:29.230Z,99484.34
2022-08-12T12:49:54.992Z,99478.98
2022-08-12T12:52:21.570Z,99483.04
2022-08-12T12:54:56.907Z,99487.27
2022-08-12T12:57:36.180Z,99484.98
2022-08-12T13:00:18.300Z,99482.55
2022-08-12T13:02:55.137Z,99476.27
2022-08-12T13:05:42.100Z,99471.77
2022-08-12T13:08:28.566Z,99469.28
2022-08-12T13:11:04.994Z,99468.10
2022-08-12T13:14:11.760Z,99464.36
2022-08-12T13:16:28.729Z,99471.71
2022-08-12T13:18:57.284Z,99467.27
2022-08-12T13:21:32.749Z,99462.52
2022-08-12T13:24:02.715Z,99466.26
2022-08-12T13:26:39.783Z,99466.31
2022-08-12T13:29:11.272Z,99464.90
2022-08-12T13:31:46.417Z,99456.64
2022-08-12T13:34:34.941Z,99453.45
2022-08-12T13:37:04.482Z,99451.82
2022-08-12T13:39:39.186Z,99444.68
2022-08-12T13:42:13.855Z,99442.30
2022-08-12T13:44:43.264Z,99438.54
2022-08-12T13:47:20.068Z,99436.57
2022-08-12T13:49:54.729Z,99439.04
2022-08-12T13:52:23.914Z,99433.57
2022-08-12T13:54:56.118Z,99430.09
2022-08-12T13:57:25.720Z,99430.05
2022-08-12T14:00:00.491Z,99426.67
2022-08-12T14:02:28.205Z,99423.18
2022-08-12T14:04:57.053Z,99415.18
2022-08-12T14:07:25.839Z,99412.13
2022-08-12T14:10:11.706Z,99408.81
2022-08-12T14:12:39.620Z,99416.55
2022-08-12T14:15:36.564Z,99412.70
2022-08-12T14:18:18.446Z,99414.20
2022-08-12T14:20:48.520Z,99420.83
2022-08-12T14:24:04.879Z,99425.81
2022-08-12T14:26:11.817Z,99430.33
2022-08-12T14:28:45.384Z,99426.98
2022-08-12T14:31:29.619Z,99421.30
2022-08-12T14:34:00.225Z,99420.22
2022-08-12T14:36:33.206Z,99416.70
2022-08-12T14:39:05.472Z,99410.21
2022-08-12T14:41:37.103Z,99409.26
2022-08-12T14:44:57.746Z,99403.99
2022-08-12T14:47:07.481Z,99403.48
2022-08-12T14:50:37.063Z,99398.30
2022-08-12T14:53:24.000Z,99398.88
2022-08-12T14:57:58.050Z,99397.91
2022-08-12T15:00:52.528Z,99399.56
2022-08-12T15:03:27.266Z,99399.79
2022-08-12T15:06:39.824Z,99402.86
2022-08-12T15:09:01.555Z,99402.79
2022-08-12T15:11:54.610Z,99403.08
2022-08-12T15:14:14.541Z,99400.03
2022-08-12T15:16:41.307Z,99400.58
2022-08-12T15:20:11.205Z,99399.18
2022-08-12T15:22:39.509Z,99400.86
2022-08-12T15:24:42.052Z,99397.33
2022-08-12T15:27:09.534Z,99394.55
2022-08-12T15:29:38.054Z,99394.23
2022-08-12T15:32:15.792Z,99395.92
2022-08-12T15:34:42.545Z,99388.77
2022-08-12T15:37:09.393Z,99394.64
2022-08-12T15:39:36.250Z,99386.66
2022-08-12T15:42:03.135Z,99385.91
2022-08-12T15:44:38.551Z,99384.31
2022-08-12T15:47:09.364Z,99383.95
2022-08-12T15:49:54.593Z,99383.60
2022-08-12T15:52:28.250Z,99379.12
2022-08-12T15:54:58.876Z,99377.22
2022-08-12T15:57:33.405Z,99376.41
2022-08-12T16:00:07.467Z,99372.77
2022-08-12T16:02:40.778Z,99368.74
2022-08-12T16:06:10.380Z,99368.15
2022-08-12T16:08:02.995Z,99365.95
2022-08-12T16:10:30.939Z,99367.73
2022-08-12T16:13:04.125Z,99363.50
2022-08-12T16:15:35.589Z,99364.64
2022-08-12T16:18:15.116Z,99358.66
2022-08-12T16:20:47.477Z,99359.22
2022-08-12T16:23:36.597Z,99354.91
2022-08-12T16:26:14.563Z,99352.79
2022-08-12T16:28:47.344Z,99354.09
2022-08-12T16:31:22.830Z,99350.33
2022-08-12T16:33:58.884Z,99354.19
2022-08-12T16:36:30.685Z,99353.52
2022-08-12T16:39:01.219Z,99350.85
2022-08-12T16:41:39.747Z,99347.42
2022-08-12T16:44:09.736Z,99347.80
2022-08-12T16:46:37.810Z,99347.16
2022-08-12T16:49:13.437Z,99348.41
2022-08-12T16:51:46.673Z,99347.05
2022-08-12T16:54:19.183Z,99346.80
2022-08-12T16:56:55.507Z,99339.98
2022-08-12T16:59:26.191Z,99336.09
2022-08-12T17:01:57.951Z,99329.83
2022-08-12T17:04:26.055Z,99329.93
2022-08-12T17:06:52.893Z,99330.10
2022-08-12T17:09:20.081Z,99327.27
2022-08-12T17:11:49.251Z,99329.05
2022-08-12T17:14:17.458Z,99332.21
2022-08-12T17:16:54.565Z,99336.90
2022-08-12T17:20:05.505Z,99336.72
2022-08-12T17:22:14.486Z,99338.79
2022-08-12T17:24:54.636Z,99337.60
2022-08-12T17:27:26.348Z,99333.91
2022-08-12T17:30:02.097Z,99334.95
2022-08-12T17:32:33.359Z,99335.38
2022-08-12T17:35:20.236Z,99334.76
2022-08-12T17:37:48.025Z,99335.11
2022-08-12T17:40:35.242Z,99333.15
2022-08-12T17:43:52.222Z,99333.39
2022-08-12T17:45:58.938Z,99329.13
2022-08-12T17:48:34.982Z,99335.00
2022-08-12T17:51:12.041Z,99332.27
2022-08-12T17:54:10.709Z,99332.23
2022-08-12T17:56:32.295Z,99337.17
2022-08-12T17:59:00.501Z,99337.26
2022-08-12T18:01:29.514Z,99341.40
2022-08-12T18:04:21.942Z,99341.21
2022-08-12T18:06:51.646Z,99341.38
2022-08-12T18:09:20.348Z,99342.05
2022-08-12T18:12:08.293Z,99348.27
2022-08-12T18:14:37.112Z,99349.95
2022-08-12T18:17:05.781Z,99348.70
2022-08-12T18:20:05.656Z,99355.64
2022-08-12T18:22:30.843Z,99354.20
2022-08-12T18:25:06.548Z,99354.79
2022-08-12T18:27:45.604Z,99352.98
2022-08-12T18:30:20.490Z,99359.20
2022-08-12T18:33:03.882Z,99358.98
2022-08-12T18:35:47.318Z,99357.73
2022-08-12T18:38:22.076Z,99360.75
2022-08-12T18:41:09.835Z,99358.46
2022-08-12T18:43:57.570Z,99362.60
2022-08-12T18:46:37.528Z,99361.69
2022-08-12T18:49:19.010Z,99363.05
2022-08-12T18:52:02.635Z,99370.29
2022-08-12T18:54:41.516Z,99369.79
2022-08-12T18:57:45.857Z,99368.14
2022-08-12T19:00:06.316Z,99369.02
2022-08-12T19:02:40.182Z,99371.86
2022-08-12T19:05:10.322Z,99368.95
2022-08-12T19:07:49.944Z,99361.45
2022-08-12T19:10:28.022Z,99369.48
2022-08-12T19:13:23.483Z,99372.41
2022-08-12T19:15:58.070Z,99372.96
2022-08-12T19:18:31.868Z,99377.31
2022-08-12T19:21:00.221Z,99379.66
2022-08-12T19:23:34.868Z,99383.22
2022-08-12T19:26:04.585Z,99377.71
2022-08-12T19:28:34.447Z,99380.62
2022-08-12T19:31:55.465Z,99381.32
2022-08-12T19:38:04.398Z,99378.20
2022-08-12T19:40:19.981Z,99381.67
2022-08-12T19:42:53.871Z,99380.95
2022-08-12T19:45:43.765Z,99384.21
2022-08-12T19:48:19.576Z,99390.21
2022-08-12T19:50:50.280Z,99392.48
2022-08-12T19:53:22.762Z,99391.61
2022-08-12T19:55:54.262Z,99389.73
2022-08-12T19:58:22.459Z,99387.52
2022-08-12T20:00:53.267Z,99387.52
2022-08-12T20:03:40.649Z,99386.35
2022-08-12T20:06:15.277Z,99382.55
2022-08-12T20:08:48.752Z,99384.43
2022-08-12T20:12:13.335Z,99384.98
2022-08-12T20:14:17.727Z,99386.09
2022-08-12T20:16:56.399Z,99386.40
2022-08-12T20:19:53.047Z,99388.71
2022-08-12T20:22:24.837Z,99388.89
2022-08-12T20:25:01.661Z,99386.75
2022-08-12T20:28:04.499Z,99382.73
2022-08-12T20:30:37.922Z,99387.17
2022-08-12T20:33:17.301Z,99390.55
2022-08-12T20:36:06.742Z,99392.13
2022-08-12T20:38:37.766Z,99391.86
2022-08-12T20:41:17.561Z,99392.80
2022-08-12T20:43:55.135Z,99395.92
2022-08-12T20:46:29.001Z,99398.23
2022-08-12T20:48:58.863Z,99396.04
2022-08-12T20:51:54.624Z,99390.75
2022-08-12T20:54:19.081Z,99389.83
2022-08-12T20:56:47.622Z,99391.02
2022-08-12T20:59:20.203Z,99389.18
2022-08-12T21:01:48.792Z,99396.34
2022-08-12T21:04:36.356Z,99394.21
2022-08-12T21:07:08.228Z,99394.52
2022-08-12T21:09:40.712Z,99390.39
2022-08-12T21:12:28.334Z,99395.94
2022-08-12T21:15:17.233Z,99399.14
2022-08-12T21:18:09.362Z,99401.81
2022-08-12T21:20:33.911Z,99398.33
2022-08-12T21:23:06.354Z,99394.15
2022-08-12T21:25:44.077Z,99397.27
2022-08-12T21:28:37.676Z,99397.50
2022-08-12T21:32:35.306Z,99405.44
2022-08-12T21:34:07.186Z,99401.77
2022-08-12T21:36:43.351Z,99403.25
2022-08-12T21:39:35.325Z,99401.23
2022-08-12T21:42:07.260Z,99398.48
2022-08-12T21:45:44.323Z,99398.99
2022-08-12T21:47:28.778Z,99402.04
2022-08-12T21:50:03.973Z,99400.52
2022-08-12T21:52:48.902Z,99399.80
2022-08-12T21:55:19.009Z,99402.20
2022-08-12T21:57:50.717Z,99403.56
2022-08-12T22:00:32.326Z,99405.20
2022-08-12T22:04:03.524Z,99407.33
2022-08-12T22:06:30.692Z,99406.58
2022-08-12T22:09:16.622Z,99408.06
2022-08-12T22:11:49.130Z,99401.45
2022-08-12T22:14:24.006Z,99400.71
2022-08-12T22:16:53.113Z,99402.77
2022-08-12T22:19:20.977Z,99398.23
2022-08-12T22:21:53.271Z,99400.70
2022-08-12T22:24:26.348Z,99402.70
2022-08-12T22:27:08.199Z,99400.73
2022-08-12T22:30:07.095Z,99395.23
2022-08-12T22:32:38.138Z,99389.83
2022-08-12T22:35:29.420Z,99389.72
2022-08-12T22:38:19.376Z,99388.25
2022-08-12T22:40:54.927Z,99389.41
2022-08-12T22:44:00.897Z,99388.95
2022-08-12T22:46:52.545Z,99384.24
2022-08-12T22:49:44.771Z,99384.48
2022-08-12T22:52:13.518Z,99376.48
2022-08-12T22:55:00.203Z,99371.64
2022-08-12T22:57:49.150Z,99371.00
2022-08-12T23:00:24.148Z,99370.65
2022-08-12T23:02:58.437Z,99368.13
2022-08-12T23:05:56.736Z,99366.08
2022-08-12T23:08:17.629Z,99367.96
2022-08-12T23:10:46.577Z,99367.45
2022-08-12T23:13:43.360Z,99366.57
2022-08-12T23:16:28.405Z,99365.73
2022-08-12T23:19:09.644Z,99367.36
2022-08-12T23:22:04.241Z,99365.27
2022-08-12T23:24:32.469Z,99366.30
2022-08-12T23:27:21.680Z,99366.97
2022-08-12T23:30:17.325Z,99361.38
2022-08-12T23:32:37.098Z,99359.71
2022-08-12T23:35:06.561Z,99360.30
2022-08-12T23:37:47.073Z,99356.08
2022-08-12T23:40:22.275Z,99355.75
2022-08-12T23:42:52.064Z,99358.83
2022-08-12T23:45:20.470Z,99357.50
2022-08-12T23:47:57.926Z,99357.33
2022-08-12T23:50:26.351Z,99359.55
2022-08-12T23:53:17.329Z,99358.23
2022-08-12T23:55:49.573Z,99358.04
2022-08-12T23:58:25.711Z,99359.06
